Airfield :
LOGIN :

Register | Disclaimer

   EN    FR    IT 

 










Legend :    VFR   Marginal VFR   IFR   Intensive IFR   Very Intensive IFR
Visi :
Ceiling :
>= 8 km
>= 3000ft
5 to 8 km
1000 to 3000 ft
1500m to 5 km
500 to 1000 ft
800 to 1500m
200 to 500 ft
< 800m
< 200 ft
Symbols :   Thunderstorms  Fog  Heavy snow  Heavy precipitations  Wind > 20 kt
SIGMETs :     Misc.  Thunderstorms  Icing  Turbulence  Mountain Waves  Volcanic Ashes






- Airport Elevation : 392 ft
- IATA code : CDG


LFPG - Paris-Aeroport Charles De Gaulle

CURRENT METAR :
  • 051530Z 19010KT 150V220 CAVOK 30/05 Q1015 NOSIG

EXPIRED METARs :
  • 051500Z 21009KT 180V270 CAVOK 31/05 Q1015 NOSIG
  • 051430Z 19009KT 140V230 CAVOK 30/05 Q1015 NOSIG
  • 051400Z 18006KT 110V230 CAVOK 30/06 Q1015 NOSIG
  • 051330Z 18010KT 140V240 CAVOK 29/05 Q1015 NOSIG
  • 051300Z 19009KT 160V260 CAVOK 29/06 Q1016 NOSIG

TAF TAF LFPG
Valid from the 05 at 12:00 until the 06 at 18:00 UTC


051100Z 0512/0618 20010KT CAVOK TX35/0615Z TN17/0604Z
TEMPO 0602/0608 VRB03KT
BECMG 0606/0608 14005KT
ATIS : +33 1 48 62 10 92



MET'MAP, your aeronautical weather chart ! - Copyright ORBIFLY December 2007 - Disclaimer

ORBIFLY MET'MAP TEAM :

Programming & Development : Alexandra Zaïnal
Concept & original design : Baudouin d'Aumeries
Assistance for programming : Marc-Olivier Méhu
Technical & hardware support : Manuel Goepfert

Contact : metmap@orbifly.com




SOURCES & CREDITS :

   NOAA